sensor_id;sensor_type;location;lat;lon;timestamp;pressure;altitude;pressure_sealevel;temperature;humidity
57616;BME280;43816;52.054;-9.494;2023-04-16T00:00:07;101525.09;;;20.58;42.79
57616;BME280;43816;52.054;-9.494;2023-04-16T00:00:17;101523.72;;;20.54;42.94
57616;BME280;43816;52.054;-9.494;2023-04-16T00:00:28;101520.00;;;20.55;42.89
57616;BME280;43816;52.054;-9.494;2023-04-16T00:00:38;101507.97;;;20.48;42.60
57616;BME280;43816;52.054;-9.494;2023-04-16T00:00:48;101517.94;;;20.57;42.60
57616;BME280;43816;52.054;-9.494;2023-04-16T00:00:59;101514.53;;;20.55;42.46
57616;BME280;43816;52.054;-9.494;2023-04-16T00:01:09;101512.28;;;20.50;42.73
57616;BME280;43816;52.054;-9.494;2023-04-16T00:01:20;101529.38;;;20.61;42.89
57616;BME280;43816;52.054;-9.494;2023-04-16T00:01:31;101530.56;;;20.58;42.57
57616;BME280;43816;52.054;-9.494;2023-04-16T00:01:41;101522.53;;;20.57;42.89
57616;BME280;43816;52.054;-9.494;2023-04-16T00:01:51;101524.25;;;20.58;42.78
57616;BME280;43816;52.054;-9.494;2023-04-16T00:02:02;101523.41;;;20.57;42.80
57616;BME280;43816;52.054;-9.494;2023-04-16T00:02:13;101510.22;;;20.52;42.72
57616;BME280;43816;52.054;-9.494;2023-04-16T00:02:23;101519.28;;;20.53;42.72
57616;BME280;43816;52.054;-9.494;2023-04-16T00:02:34;101518.78;;;20.58;42.92
57616;BME280;43816;52.054;-9.494;2023-04-16T00:02:44;101520.66;;;20.57;42.68
57616;BME280;43816;52.054;-9.494;2023-04-16T00:02:54;101518.94;;;20.56;42.81
57616;BME280;43816;52.054;-9.494;2023-04-16T00:03:04;101525.81;;;20.60;42.59
57616;BME280;43816;52.054;-9.494;2023-04-16T00:03:15;101518.25;;;20.54;42.78
57616;BME280;43816;52.054;-9.494;2023-04-16T00:03:25;101508.16;;;20.55;42.79
57616;BME280;43816;52.054;-9.494;2023-04-16T00:03:35;101516.22;;;20.56;42.88
57616;BME280;43816;52.054;-9.494;2023-04-16T00:03:46;101516.53;;;20.53;42.92
57616;BME280;43816;52.054;-9.494;2023-04-16T00:03:56;101520.50;;;20.59;42.92
57616;BME280;43816;52.054;-9.494;2023-04-16T00:04:07;101522.72;;;20.55;42.79
57616;BME280;43816;52.054;-9.494;2023-04-16T00:04:17;101499.94;;;20.46;42.74
57616;BME280;43816;52.054;-9.494;2023-04-16T00:04:27;101518.09;;;20.56;43.01
57616;BME280;43816;52.054;-9.494;2023-04-16T00:04:38;101518.41;;;20.52;42.79
57616;BME280;43816;52.054;-9.494;2023-04-16T00:04:48;101520.84;;;20.56;42.80
57616;BME280;43816;52.054;-9.494;2023-04-16T00:04:58;101522.88;;;20.54;42.61
57616;BME280;43816;52.054;-9.494;2023-04-16T00:05:09;101522.72;;;20.55;42.81
57616;BME280;43816;52.054;-9.494;2023-04-16T00:05:19;101535.88;;;20.60;42.81
57616;BME280;43816;52.054;-9.494;2023-04-16T00:05:29;101514.47;;;20.47;42.83
57616;BME280;43816;52.054;-9.494;2023-04-16T00:05:40;101518.41;;;20.52;42.88
57616;BME280;43816;52.054;-9.494;2023-04-16T00:05:50;101513.44;;;20.48;42.81
57616;BME280;43816;52.054;-9.494;2023-04-16T00:06:01;101524.56;;;20.55;42.97
57616;BME280;43816;52.054;-9.494;2023-04-16T00:06:11;101535.88;;;20.60;42.74
57616;BME280;43816;52.054;-9.494;2023-04-16T00:06:21;101537.75;;;20.59;42.78
57616;BME280;43816;52.054;-9.494;2023-04-16T00:06:32;101538.44;;;20.61;42.82
57616;BME280;43816;52.054;-9.494;2023-04-16T00:06:42;101525.25;;;20.57;42.80
57616;BME280;43816;52.054;-9.494;2023-04-16T00:06:53;101524.41;;;20.56;42.89
57616;BME280;43816;52.054;-9.494;2023-04-16T00:07:03;101528.53;;;20.60;42.94
57616;BME280;43816;52.054;-9.494;2023-04-16T00:07:14;101532.13;;;20.61;42.94
57616;BME280;43816;52.054;-9.494;2023-04-16T00:07:24;101500.25;;;20.43;42.81
57616;BME280;43816;52.054;-9.494;2023-04-16T00:07:34;101518.09;;;20.56;42.79
57616;BME280;43816;52.054;-9.494;2023-04-16T00:07:45;101530.56;;;20.58;42.78
57616;BME280;43816;52.054;-9.494;2023-04-16T00:07:58;101525.09;;;20.58;42.75
57616;BME280;43816;52.054;-9.494;2023-04-16T00:08:08;101516.00;;;20.49;42.76
57616;BME280;43816;52.054;-9.494;2023-04-16T00:08:18;101526.13;;;20.57;42.83
57616;BME280;43816;52.054;-9.494;2023-04-16T00:08:29;101533.13;;;20.60;42.79
57616;BME280;43816;52.054;-9.494;2023-04-16T00:08:39;101522.88;;;20.54;42.90
57616;BME280;43816;52.054;-9.494;2023-04-16T00:08:49;101530.41;;;20.60;42.91
57616;BME280;43816;52.054;-9.494;2023-04-16T00:09:00;101515.16;;;20.49;42.66
57616;BME280;43816;52.054;-9.494;2023-04-16T00:09:10;101517.94;;;20.57;43.00
57616;BME280;43816;52.054;-9.494;2023-04-16T00:09:20;101523.41;;;20.57;42.81
57616;BME280;43816;52.054;-9.494;2023-04-16T00:09:30;101501.47;;;20.41;43.20
57616;BME280;43816;52.054;-9.494;2023-04-16T00:09:41;101530.91;;;20.55;42.70
57616;BME280;43816;52.054;-9.494;2023-04-16T00:09:51;101528.53;;;20.60;42.82
57616;BME280;43816;52.054;-9.494;2023-04-16T00:10:01;101527.16;;;20.56;42.80
57616;BME280;43816;52.054;-9.494;2023-04-16T00:10:12;101509.88;;;20.47;42.68
57616;BME280;43816;52.054;-9.494;2023-04-16T00:10:23;101533.84;;;20.62;42.85
57616;BME280;43816;52.054;-9.494;2023-04-16T00:10:34;101531.13;;;20.62;42.84
57616;BME280;43816;52.054;-9.494;2023-04-16T00:10:44;101492.41;;;20.40;42.74
57616;BME280;43816;52.054;-9.494;2023-04-16T00:10:54;101502.84;;;20.45;42.73
57616;BME280;43816;52.054;-9.494;2023-04-16T00:11:05;101533.28;;;20.58;42.82
57616;BME280;43816;52.054;-9.494;2023-04-16T00:11:15;101521.00;;;20.54;42.98
57616;BME280;43816;52.054;-9.494;2023-04-16T00:11:26;101518.25;;;20.54;42.64
57616;BME280;43816;52.054;-9.494;2023-04-16T00:11:36;101526.81;;;20.59;42.95
57616;BME280;43816;52.054;-9.494;2023-04-16T00:11:46;101536.59;;;20.62;43.41
57616;BME280;43816;52.054;-9.494;2023-04-16T00:11:56;101501.47;;;20.41;43.00
57616;BME280;43816;52.054;-9.494;2023-04-16T00:12:07;101502.84;;;20.45;42.99
57616;BME280;43816;52.054;-9.494;2023-04-16T00:12:17;101488.63;;;20.33;42.97
57616;BME280;43816;52.054;-9.494;2023-04-16T00:12:27;101531.13;;;20.62;43.26
57616;BME280;43816;52.054;-9.494;2023-04-16T00:12:38;101522.00;;;20.53;42.96
57616;BME280;43816;52.054;-9.494;2023-04-16T00:12:48;101496.31;;;20.38;42.92
57616;BME280;43816;52.054;-9.494;2023-04-16T00:12:58;101521.16;;;20.52;43.05
57616;BME280;43816;52.054;-9.494;2023-04-16T00:13:09;101526.81;;;20.59;42.95
57616;BME280;43816;52.054;-9.494;2023-04-16T00:13:19;101498.72;;;20.41;43.00
57616;BME280;43816;52.054;-9.494;2023-04-16T00:13:29;101523.41;;;20.57;43.28
57616;BME280;43816;52.054;-9.494;2023-04-16T00:13:40;101531.13;;;20.62;43.15
57616;BME280;43816;52.054;-9.494;2023-04-16T00:13:50;101501.31;;;20.42;43.02
57616;BME280;43816;52.054;-9.494;2023-04-16T00:14:00;101510.56;;;20.49;43.19
57616;BME280;43816;52.054;-9.494;2023-04-16T00:14:11;101536.75;;;20.60;42.89
57616;BME280;43816;52.054;-9.494;2023-04-16T00:14:21;101527.16;;;20.56;42.92
57616;BME280;43816;52.054;-9.494;2023-04-16T00:14:34;101536.59;;;20.62;42.92
57616;BME280;43816;52.054;-9.494;2023-04-16T00:14:44;101496.16;;;20.39;42.91
57616;BME280;43816;52.054;-9.494;2023-04-16T00:14:54;101498.25;;;20.45;42.99
57616;BME280;43816;52.054;-9.494;2023-04-16T00:15:05;101520.50;;;20.59;43.03
57616;BME280;43816;52.054;-9.494;2023-04-16T00:15:15;101516.69;;;20.51;43.00
57616;BME280;43816;52.054;-9.494;2023-04-16T00:15:26;101528.88;;;20.57;43.12
57616;BME280;43816;52.054;-9.494;2023-04-16T00:15:36;101528.38;;;20.62;43.13
57616;BME280;43816;52.054;-9.494;2023-04-16T00:15:49;101510.38;;;20.51;42.89
57616;BME280;43816;52.054;-9.494;2023-04-16T00:15:59;101525.09;;;20.58;43.21
57616;BME280;43816;52.054;-9.494;2023-04-16T00:16:10;101527.50;;;20.61;43.05
57616;BME280;43816;52.054;-9.494;2023-04-16T00:16:20;101539.19;;;20.63;42.96
57616;BME280;43816;52.054;-9.494;2023-04-16T00:16:30;101537.44;;;20.62;43.24
57616;BME280;43816;52.054;-9.494;2023-04-16T00:16:41;101520.31;;;20.52;43.08
57616;BME280;43816;52.054;-9.494;2023-04-16T00:16:51;101518.59;;;20.51;43.05
57616;BME280;43816;52.054;-9.494;2023-04-16T00:17:01;101527.16;;;20.56;43.14
57616;BME280;43816;52.054;-9.494;2023-04-16T00:17:12;101528.72;;;20.59;43.03
57616;BME280;43816;52.054;-9.494;2023-04-16T00:17:22;101514.84;;;20.52;42.80
57616;BME280;43816;52.054;-9.494;2023-04-16T00:17:34;101526.13;;;20.57;42.96
57616;BME280;43816;52.054;-9.494;2023-04-16T00:17:45;101514.69;;;20.54;42.98
57616;BME280;43816;52.054;-9.494;2023-04-16T00:17:55;101522.00;;;20.53;43.07
57616;BME280;43816;52.054;-9.494;2023-04-16T00:18:05;101513.44;;;20.48;42.94
57616;BME280;43816;52.054;-9.494;2023-04-16T00:18:19;101524.78;;;20.61;42.91
57616;BME280;43816;52.054;-9.494;2023-04-16T00:18:29;101490.50;;;20.32;42.86
57616;BME280;43816;52.054;-9.494;2023-04-16T00:18:39;101532.13;;;20.61;42.78
57616;BME280;43816;52.054;-9.494;2023-04-16T00:18:50;101529.56;;;20.59;43.20
57616;BME280;43816;52.054;-9.494;2023-04-16T00:19:00;101516.53;;;20.53;43.11
57616;BME280;43816;52.054;-9.494;2023-04-16T00:19:10;101502.31;;;20.41;42.95
57616;BME280;43816;52.054;-9.494;2023-04-16T00:19:21;101518.59;;;20.51;42.96
57616;BME280;43816;52.054;-9.494;2023-04-16T00:19:31;101536.59;;;20.62;43.15
57616;BME280;43816;52.054;-9.494;2023-04-16T00:19:43;101493.59;;;20.38;42.49
57616;BME280;43816;52.054;-9.494;2023-04-16T00:19:54;101537.44;;;20.62;43.04
57616;BME280;43816;52.054;-9.494;2023-04-16T00:20:05;101510.03;;;20.46;43.11
57616;BME280;43816;52.054;-9.494;2023-04-16T00:20:15;101532.84;;;20.63;42.91
57616;BME280;43816;52.054;-9.494;2023-04-16T00:20:25;101531.97;;;20.62;43.31
57616;BME280;43816;52.054;-9.494;2023-04-16T00:20:36;101519.09;;;20.55;43.24
57616;BME280;43816;52.054;-9.494;2023-04-16T00:20:47;101531.97;;;20.62;43.12
57616;BME280;43816;52.054;-9.494;2023-04-16T00:20:57;101511.41;;;20.50;43.10
57616;BME280;43816;52.054;-9.494;2023-04-16T00:21:08;101533.13;;;20.60;42.75
57616;BME280;43816;52.054;-9.494;2023-04-16T00:21:18;101519.09;;;20.55;42.81
57616;BME280;43816;52.054;-9.494;2023-04-16T00:21:28;101530.56;;;20.58;42.98
57616;BME280;43816;52.054;-9.494;2023-04-16T00:21:39;101531.97;;;20.62;43.26
57616;BME280;43816;52.054;-9.494;2023-04-16T00:21:49;101521.00;;;20.54;43.02
57616;BME280;43816;52.054;-9.494;2023-04-16T00:21:59;101519.09;;;20.55;43.05
57616;BME280;43816;52.054;-9.494;2023-04-16T00:22:10;101510.91;;;20.55;43.05
57616;BME280;43816;52.054;-9.494;2023-04-16T00:22:20;101498.09;;;20.47;43.08
57616;BME280;43816;52.054;-9.494;2023-04-16T00:22:30;101516.03;;;20.58;42.94
57616;BME280;43816;52.054;-9.494;2023-04-16T00:22:40;101512.78;;;20.54;42.93
57616;BME280;43816;52.054;-9.494;2023-04-16T00:22:51;101521.50;;;20.58;43.18
57616;BME280;43816;52.054;-9.494;2023-04-16T00:23:01;101519.63;;;20.58;42.90
57616;BME280;43816;52.054;-9.494;2023-04-16T00:23:11;101515.19;;;20.57;42.92
57616;BME280;43816;52.054;-9.494;2023-04-16T00:23:22;101515.03;;;20.59;42.93
57616;BME280;43816;52.054;-9.494;2023-04-16T00:23:32;101502.34;;;20.49;42.93
57616;BME280;43816;52.054;-9.494;2023-04-16T00:23:42;101526.50;;;20.62;43.09
57616;BME280;43816;52.054;-9.494;2023-04-16T00:23:53;101517.25;;;20.55;43.04
57616;BME280;43816;52.054;-9.494;2023-04-16T00:24:03;101511.44;;;20.58;43.21
57616;BME280;43816;52.054;-9.494;2023-04-16T00:24:13;101524.78;;;20.61;42.82
57616;BME280;43816;52.054;-9.494;2023-04-16T00:24:24;101525.66;;;20.62;43.05
57616;BME280;43816;52.054;-9.494;2023-04-16T00:24:34;101509.91;;;20.56;43.09
57616;BME280;43816;52.054;-9.494;2023-04-16T00:24:44;101502.50;;;20.48;42.91
57616;BME280;43816;52.054;-9.494;2023-04-16T00:24:55;101518.44;;;20.61;42.75
57616;BME280;43816;52.054;-9.494;2023-04-16T00:25:05;101511.06;;;20.53;43.04
57616;BME280;43816;52.054;-9.494;2023-04-16T00:25:15;101515.53;;;20.54;43.10
57616;BME280;43816;52.054;-9.494;2023-04-16T00:25:26;101521.91;;;20.63;42.85
57616;BME280;43816;52.054;-9.494;2023-04-16T00:25:36;101518.94;;;20.56;42.89
57616;BME280;43816;52.054;-9.494;2023-04-16T00:25:49;101518.25;;;20.54;43.00
57616;BME280;43816;52.054;-9.494;2023-04-16T00:25:59;101532.84;;;20.63;42.84
57616;BME280;43816;52.054;-9.494;2023-04-16T00:26:10;101518.94;;;20.56;43.09
57616;BME280;43816;52.054;-9.494;2023-04-16T00:26:20;101526.50;;;20.62;42.99
57616;BME280;43816;52.054;-9.494;2023-04-16T00:26:30;101514.53;;;20.55;42.66
57616;BME280;43816;52.054;-9.494;2023-04-16T00:26:41;101524.25;;;20.58;42.87
57616;BME280;43816;52.054;-9.494;2023-04-16T00:26:51;101513.63;;;20.55;43.11
57616;BME280;43816;52.054;-9.494;2023-04-16T00:27:01;101528.38;;;20.62;43.00
57616;BME280;43816;52.054;-9.494;2023-04-16T00:27:11;101525.09;;;20.58;42.86
57616;BME280;43816;52.054;-9.494;2023-04-16T00:27:22;101534.56;;;20.64;43.28
57616;BME280;43816;52.054;-9.494;2023-04-16T00:27:32;101512.78;;;20.54;42.95
57616;BME280;43816;52.054;-9.494;2023-04-16T00:27:42;101530.25;;;20.61;42.86
57616;BME280;43816;52.054;-9.494;2023-04-16T00:27:53;101530.09;;;20.63;43.05
57616;BME280;43816;52.054;-9.494;2023-04-16T00:28:04;101518.25;;;20.54;42.77
57616;BME280;43816;52.054;-9.494;2023-04-16T00:28:14;101522.53;;;20.57;42.95
57616;BME280;43816;52.054;-9.494;2023-04-16T00:28:25;101524.78;;;20.61;42.99
57616;BME280;43816;52.054;-9.494;2023-04-16T00:28:35;101530.25;;;20.61;42.76
57616;BME280;43816;52.054;-9.494;2023-04-16T00:28:46;101528.53;;;20.60;42.88
57616;BME280;43816;52.054;-9.494;2023-04-16T00:28:56;101521.34;;;20.59;43.26
57616;BME280;43816;52.054;-9.494;2023-04-16T00:29:06;101521.69;;;20.56;42.81
57616;BME280;43816;52.054;-9.494;2023-04-16T00:29:16;101517.94;;;20.57;43.05
57616;BME280;43816;52.054;-9.494;2023-04-16T00:29:27;101518.09;;;20.56;43.08
57616;BME280;43816;52.054;-9.494;2023-04-16T00:29:37;101500.81;;;20.47;42.79
57616;BME280;43816;52.054;-9.494;2023-04-16T00:29:47;101518.09;;;20.56;42.76
57616;BME280;43816;52.054;-9.494;2023-04-16T00:29:58;101507.66;;;20.51;42.93
57616;BME280;43816;52.054;-9.494;2023-04-16T00:30:08;101514.53;;;20.55;43.05
57616;BME280;43816;52.054;-9.494;2023-04-16T00:30:18;101511.94;;;20.54;43.06
57616;BME280;43816;52.054;-9.494;2023-04-16T00:30:29;101510.38;;;20.51;42.93
57616;BME280;43816;52.054;-9.494;2023-04-16T00:30:39;101516.22;;;20.56;42.93
57616;BME280;43816;52.054;-9.494;2023-04-16T00:30:49;101518.78;;;20.58;42.89
57616;BME280;43816;52.054;-9.494;2023-04-16T00:31:00;101457.31;;;20.19;42.93
57616;BME280;43816;52.054;-9.494;2023-04-16T00:31:10;101520.66;;;20.57;42.79
57616;BME280;43816;52.054;-9.494;2023-04-16T00:31:31;101512.78;;;20.54;43.00
57616;BME280;43816;52.054;-9.494;2023-04-16T00:31:42;101518.63;;;20.59;42.88
57616;BME280;43816;52.054;-9.494;2023-04-16T00:31:52;101518.78;;;20.58;42.78
57616;BME280;43816;52.054;-9.494;2023-04-16T00:32:03;101513.84;;;20.61;42.96
57616;BME280;43816;52.054;-9.494;2023-04-16T00:32:13;101495.50;;;20.45;42.91
57616;BME280;43816;52.054;-9.494;2023-04-16T00:32:23;101511.06;;;20.53;43.00
57616;BME280;43816;52.054;-9.494;2023-04-16T00:32:34;101493.47;;;20.47;42.77
57616;BME280;43816;52.054;-9.494;2023-04-16T00:32:44;101521.19;;;20.61;42.85
57616;BME280;43816;52.054;-9.494;2023-04-16T00:32:57;101503.22;;;20.58;42.83
57616;BME280;43816;52.054;-9.494;2023-04-16T00:33:08;101502.03;;;20.52;42.92
57616;BME280;43816;52.054;-9.494;2023-04-16T00:33:18;101489.16;;;20.45;42.94
57616;BME280;43816;52.054;-9.494;2023-04-16T00:33:28;101495.34;;;20.47;43.07
57616;BME280;43816;52.054;-9.494;2023-04-16T00:33:39;101501.84;;;20.54;42.93
57616;BME280;43816;52.054;-9.494;2023-04-16T00:33:49;101505.28;;;20.56;42.93
57616;BME280;43816;52.054;-9.494;2023-04-16T00:33:59;101500.66;;;20.57;42.71
57616;BME280;43816;52.054;-9.494;2023-04-16T00:34:10;101502.69;;;20.55;42.95
57616;BME280;43816;52.054;-9.494;2023-04-16T00:34:20;101509.56;;;20.59;42.72
57616;BME280;43816;52.054;-9.494;2023-04-16T00:34:30;101518.16;;;20.64;42.56
57616;BME280;43816;52.054;-9.494;2023-04-16T00:34:40;101510.09;;;20.62;42.85
57616;BME280;43816;52.054;-9.494;2023-04-16T00:34:51;101499.44;;;20.51;42.82
57616;BME280;43816;52.054;-9.494;2023-04-16T00:35:01;101499.13;;;20.54;43.02
57616;BME280;43816;52.054;-9.494;2023-04-16T00:35:11;101508.53;;;20.60;42.94
57616;BME280;43816;52.054;-9.494;2023-04-16T00:35:22;101503.59;;;20.55;42.77
57616;BME280;43816;52.054;-9.494;2023-04-16T00:35:32;101507.69;;;20.59;43.05
57616;BME280;43816;52.054;-9.494;2023-04-16T00:35:44;101504.44;;;20.56;43.04
57616;BME280;43816;52.054;-9.494;2023-04-16T00:35:55;101514.59;;;20.63;42.97
57616;BME280;43816;52.054;-9.494;2023-04-16T00:36:05;101518.16;;;20.64;42.95
57616;BME280;43816;52.054;-9.494;2023-04-16T00:36:15;101503.38;;;20.57;42.62
57616;BME280;43816;52.054;-9.494;2023-04-16T00:36:26;101508.38;;;20.61;42.89
57616;BME280;43816;52.054;-9.494;2023-04-16T00:36:37;101492.81;;;20.54;43.05
57616;BME280;43816;52.054;-9.494;2023-04-16T00:36:47;101503.22;;;20.58;43.07
57616;BME280;43816;52.054;-9.494;2023-04-16T00:36:58;101504.09;;;20.59;43.00
57616;BME280;43816;52.054;-9.494;2023-04-16T00:37:08;101499.81;;;20.56;42.72
57616;BME280;43816;52.054;-9.494;2023-04-16T00:37:18;101482.53;;;20.47;43.08
57616;BME280;43816;52.054;-9.494;2023-04-16T00:37:29;101500.84;;;20.55;42.89
57616;BME280;43816;52.054;-9.494;2023-04-16T00:37:40;101500.16;;;20.61;42.99
57616;BME280;43816;52.054;-9.494;2023-04-16T00:37:51;101498.28;;;20.54;42.89
57616;BME280;43816;52.054;-9.494;2023-04-16T00:38:01;101502.22;;;20.59;42.91
57616;BME280;43816;52.054;-9.494;2023-04-16T00:38:12;101500.50;;;20.58;42.96
57616;BME280;43816;52.054;-9.494;2023-04-16T00:38:24;101485.09;;;20.49;43.02
57616;BME280;43816;52.054;-9.494;2023-04-16T00:38:35;101494.16;;;20.49;43.09
57616;BME280;43816;52.054;-9.494;2023-04-16T00:38:46;101483.22;;;20.49;42.88
57616;BME280;43816;52.054;-9.494;2023-04-16T00:38:56;101498.78;;;20.57;42.86
57616;BME280;43816;52.054;-9.494;2023-04-16T00:39:06;101496.06;;;20.57;43.04
57616;BME280;43816;52.054;-9.494;2023-04-16T00:39:17;101493.97;;;20.51;42.82
57616;BME280;43816;52.054;-9.494;2023-04-16T00:39:27;101498.47;;;20.60;42.78
57616;BME280;43816;52.054;-9.494;2023-04-16T00:39:37;101479.97;;;20.46;42.93
57616;BME280;43816;52.054;-9.494;2023-04-16T00:39:47;101509.41;;;20.60;42.88
57616;BME280;43816;52.054;-9.494;2023-04-16T00:39:59;101497.91;;;20.57;42.79
57616;BME280;43816;52.054;-9.494;2023-04-16T00:40:10;101503.78;;;20.62;43.17
57616;BME280;43816;52.054;-9.494;2023-04-16T00:40:21;101496.91;;;20.58;42.97
57616;BME280;43816;52.054;-9.494;2023-04-16T00:40:31;101495.03;;;20.58;42.75
57616;BME280;43816;52.054;-9.494;2023-04-16T00:40:41;101501.22;;;20.60;42.74
57616;BME280;43816;52.054;-9.494;2023-04-16T00:40:51;101509.25;;;20.62;42.84
57616;BME280;43816;52.054;-9.494;2023-04-16T00:41:02;101501.38;;;20.59;42.84
57616;BME280;43816;52.054;-9.494;2023-04-16T00:41:12;101496.91;;;20.58;42.97
57616;BME280;43816;52.054;-9.494;2023-04-16T00:41:23;101460.13;;;20.36;42.94
57616;BME280;43816;52.054;-9.494;2023-04-16T00:41:33;101484.78;;;20.52;42.77
57616;BME280;43816;52.054;-9.494;2023-04-16T00:41:45;101507.22;;;20.64;42.92
57616;BME280;43816;52.054;-9.494;2023-04-16T00:41:55;101453.97;;;20.33;42.93
57616;BME280;43816;52.054;-9.494;2023-04-16T00:42:05;101475.50;;;20.45;42.81
57616;BME280;43816;52.054;-9.494;2023-04-16T00:42:16;101478.44;;;20.51;42.71
57616;BME280;43816;52.054;-9.494;2023-04-16T00:42:26;101498.31;;;20.62;42.76
57616;BME280;43816;52.054;-9.494;2023-04-16T00:42:36;101488.88;;;20.56;42.87
57616;BME280;43816;52.054;-9.494;2023-04-16T00:42:46;101483.91;;;20.51;42.68
57616;BME280;43816;52.054;-9.494;2023-04-16T00:42:57;101476.75;;;20.50;42.75
57616;BME280;43816;52.054;-9.494;2023-04-16T00:43:07;101457.53;;;20.34;42.82
57616;BME280;43816;52.054;-9.494;2023-04-16T00:43:21;101493.16;;;20.59;42.78
57616;BME280;43816;52.054;-9.494;2023-04-16T00:43:32;101499.16;;;20.62;42.85
57616;BME280;43816;52.054;-9.494;2023-04-16T00:43:42;101475.84;;;20.50;43.01
57616;BME280;43816;52.054;-9.494;2023-04-16T00:43:52;101488.53;;;20.59;42.65
57616;BME280;43816;52.054;-9.494;2023-04-16T00:44:03;101483.41;;;20.56;42.69
57616;BME280;43816;52.054;-9.494;2023-04-16T00:44:13;101495.44;;;20.63;42.80
57616;BME280;43816;52.054;-9.494;2023-04-16T00:44:23;101485.47;;;20.54;42.85
57616;BME280;43816;52.054;-9.494;2023-04-16T00:44:34;101484.25;;;20.57;42.80
57616;BME280;43816;52.054;-9.494;2023-04-16T00:44:44;101480.50;;;20.58;42.93
57616;BME280;43816;52.054;-9.494;2023-04-16T00:44:54;101483.25;;;20.58;42.86
57616;BME280;43816;52.054;-9.494;2023-04-16T00:45:05;101483.25;;;20.58;42.94
57616;BME280;43816;52.054;-9.494;2023-04-16T00:45:15;101497.44;;;20.61;42.76
57616;BME280;43816;52.054;-9.494;2023-04-16T00:45:26;101493.16;;;20.59;42.96
57616;BME280;43816;52.054;-9.494;2023-04-16T00:45:36;101481.53;;;20.57;42.73
57616;BME280;43816;52.054;-9.494;2023-04-16T00:45:47;101492.72;;;20.63;42.77
57616;BME280;43816;52.054;-9.494;2023-04-16T00:45:57;101490.28;;;20.60;42.78
57616;BME280;43816;52.054;-9.494;2023-04-16T00:46:08;101478.25;;;20.53;42.67
57616;BME280;43816;52.054;-9.494;2023-04-16T00:46:21;101490.28;;;20.60;42.79
57616;BME280;43816;52.054;-9.494;2023-04-16T00:46:32;101488.53;;;20.59;42.59
57616;BME280;43816;52.054;-9.494;2023-04-16T00:46:43;101454.69;;;20.44;42.95
57616;BME280;43816;52.054;-9.494;2023-04-16T00:46:55;101485.47;;;20.62;42.84
57616;BME280;43816;52.054;-9.494;2023-04-16T00:47:06;101480.50;;;20.58;42.87
57616;BME280;43816;52.054;-9.494;2023-04-16T00:47:16;101497.13;;;20.64;42.74
57616;BME280;43816;52.054;-9.494;2023-04-16T00:47:29;101477.94;;;20.56;42.88
57616;BME280;43816;52.054;-9.494;2023-04-16T00:47:40;101465.97;;;20.49;42.89
57616;BME280;43816;52.054;-9.494;2023-04-16T00:47:50;101489.38;;;20.60;42.76
57616;BME280;43816;52.054;-9.494;2023-04-16T00:48:00;101483.06;;;20.59;42.79
57616;BME280;43816;52.054;-9.494;2023-04-16T00:48:11;101480.66;;;20.56;43.04
57616;BME280;43816;52.054;-9.494;2023-04-16T00:48:21;101484.25;;;20.57;42.81
57616;BME280;43816;52.054;-9.494;2023-04-16T00:48:33;101491.13;;;20.61;42.74
57616;BME280;43816;52.054;-9.494;2023-04-16T00:48:43;101486.81;;;20.58;42.59
57616;BME280;43816;52.054;-9.494;2023-04-16T00:48:54;101493.84;;;20.61;42.80
57616;BME280;43816;52.054;-9.494;2023-04-16T00:49:05;101491.13;;;20.61;42.84
57616;BME280;43816;52.054;-9.494;2023-04-16T00:49:15;101489.56;;;20.58;42.72
57616;BME280;43816;52.054;-9.494;2023-04-16T00:49:26;101486.81;;;20.58;42.42
57616;BME280;43816;52.054;-9.494;2023-04-16T00:49:36;101494.69;;;20.61;42.77
57616;BME280;43816;52.054;-9.494;2023-04-16T00:49:47;101494.56;;;20.63;42.75
57616;BME280;43816;52.054;-9.494;2023-04-16T00:49:58;101488.53;;;20.59;42.79
57616;BME280;43816;52.054;-9.494;2023-04-16T00:50:09;101479.47;;;20.50;42.59
57616;BME280;43816;52.054;-9.494;2023-04-16T00:50:20;101489.38;;;20.60;42.71
57616;BME280;43816;52.054;-9.494;2023-04-16T00:50:31;101495.44;;;20.63;42.56
57616;BME280;43816;52.054;-9.494;2023-04-16T00:50:42;101482.56;;;20.56;42.64
57616;BME280;43816;52.054;-9.494;2023-04-16T00:50:53;101478.78;;;20.57;42.68
57616;BME280;43816;52.054;-9.494;2023-04-16T00:51:07;101490.28;;;20.60;42.73
57616;BME280;43816;52.054;-9.494;2023-04-16T00:51:18;101489.56;;;20.58;42.74
57616;BME280;43816;52.054;-9.494;2023-04-16T00:51:29;101480.00;;;20.54;42.86
57616;BME280;43816;52.054;-9.494;2023-04-16T00:51:40;101490.28;;;20.60;42.75
57616;BME280;43816;52.054;-9.494;2023-04-16T00:51:50;101485.97;;;20.58;42.62
57616;BME280;43816;52.054;-9.494;2023-04-16T00:52:00;101478.44;;;20.51;42.71
57616;BME280;43816;52.054;-9.494;2023-04-16T00:52:11;101462.88;;;20.44;42.79
57616;BME280;43816;52.054;-9.494;2023-04-16T00:52:21;101498.31;;;20.62;42.89
57616;BME280;43816;52.054;-9.494;2023-04-16T00:52:32;101494.00;;;20.59;42.67
57616;BME280;43816;52.054;-9.494;2023-04-16T00:52:46;101505.50;;;20.63;42.67
57616;BME280;43816;52.054;-9.494;2023-04-16T00:52:56;101491.44;;;20.58;42.80
57616;BME280;43816;52.054;-9.494;2023-04-16T00:53:07;101498.19;;;20.63;42.66
57616;BME280;43816;52.054;-9.494;2023-04-16T00:53:17;101493.16;;;20.59;42.84
57616;BME280;43816;52.054;-9.494;2023-04-16T00:53:28;101454.31;;;20.39;42.73
57616;BME280;43816;52.054;-9.494;2023-04-16T00:53:38;101498.19;;;20.63;42.60
57616;BME280;43816;52.054;-9.494;2023-04-16T00:53:49;101476.06;;;20.48;42.77
57616;BME280;43816;52.054;-9.494;2023-04-16T00:54:00;101489.03;;;20.55;42.80
57616;BME280;43816;52.054;-9.494;2023-04-16T00:54:10;101496.41;;;20.62;42.69
57616;BME280;43816;52.054;-9.494;2023-04-16T00:54:21;101485.81;;;20.59;42.78
57616;BME280;43816;52.054;-9.494;2023-04-16T00:54:32;101499.16;;;20.62;42.81
57616;BME280;43816;52.054;-9.494;2023-04-16T00:54:42;101501.75;;;20.64;42.70